シンガポール/チャンギ の空港の天気 - METARとTAF

シンガポール・チャンギ国際空港 ( WSSS / SIN ) - シンガポール Changi
飛行場実況気象(Metar)
観測時間05/31 03:00 SGT (05/30 19:00 UTC)
風向・風速不定 1m/s
視程10km以上
天気現象
少しの雲 雲底高度 550m
全天の8割程度の雲 雲底高度 9140m
気温27℃
湿度89%
気圧1012hPa
METARWSSS 301900Z VRB01KT 9999 FEW018 BKN300 27/25 Q1012 NOSIG
過去の天気等 Google飛行場航空写真 Wunderground天気予報

過去48時間のMETAR

飛行場予報(TAF)
発表時間: 5/31 01:00 SGT (5/30 17:00 UTC)
予報対象時間: 31日2時 SGT ~ 1日8時 SGT
風向・風速南東 4m/s
視程10km以上
少しの雲 雲底高度 460m
全天の4割程度の雲 雲底高度 610m
31日13時 SGT ~ 31日16時 SGT に一時的に
視程3000m
天気現象雷雨
少しの積乱雲 雲底高度 370m
全天の8割程度の雲 雲底高度 460m
TAF WSSS 301700Z 3018/0100 13007KT 9999 FEW015 SCT020
TEMPO 3105/3108 3000 TSRA FEW012CB BKN015